createdAt,value
2023-05-19T00:00:57.272Z,0.3333333333333333
2023-05-19T00:03:57.998Z,0
2023-05-19T00:06:57.821Z,0.3333333333333333
2023-05-19T00:09:57.100Z,0
2023-05-19T00:12:56.936Z,0.3333333333333333
2023-05-19T00:15:57.717Z,0.6666666666666666
2023-05-19T00:18:57.891Z,0.3333333333333333
2023-05-19T00:21:57.541Z,0.6666666666666666
2023-05-19T00:24:56.803Z,0
2023-05-19T00:27:57.296Z,0
2023-05-19T00:30:56.840Z,0
2023-05-19T00:33:57.167Z,0.3333333333333333
2023-05-19T00:36:57.064Z,0
2023-05-19T00:39:57.635Z,0.3333333333333333
2023-05-19T00:42:57.547Z,0.3333333333333333
2023-05-19T00:45:57.310Z,0
2023-05-19T00:48:57.463Z,0
2023-05-19T00:51:56.919Z,0.3333333333333333
2023-05-19T00:54:58.276Z,1
2023-05-19T00:57:57.060Z,0
2023-05-19T01:00:57.679Z,0
2023-05-19T01:03:57.592Z,0
2023-05-19T01:06:57.630Z,1
2023-05-19T01:09:57.840Z,0
2023-05-19T01:12:57.769Z,0.3333333333333333
2023-05-19T01:15:57.431Z,0
2023-05-19T01:18:57.096Z,0.3333333333333333
2023-05-19T01:21:57.544Z,1.3333333333333333
2023-05-19T01:24:56.785Z,0
2023-05-19T01:27:57.253Z,0
2023-05-19T01:30:57.229Z,1.3333333333333333
2023-05-19T01:33:56.679Z,0
2023-05-19T01:36:57.779Z,0
2023-05-19T01:39:57.421Z,0
2023-05-19T01:42:57.862Z,0
2023-05-19T01:45:57.728Z,0
2023-05-19T01:48:57.134Z,0
2023-05-19T01:51:57.811Z,0.3333333333333333
2023-05-19T01:54:57.236Z,0.3333333333333333
2023-05-19T01:57:57.295Z,0
2023-05-19T02:00:57.219Z,0
2023-05-19T02:03:57.349Z,0
2023-05-19T02:06:57.406Z,0.6666666666666666
2023-05-19T02:09:57.293Z,0
2023-05-19T02:12:56.795Z,0
2023-05-19T02:15:57.498Z,0.6666666666666666
2023-05-19T02:18:57.597Z,0
2023-05-19T02:21:57.160Z,0.3333333333333333
2023-05-19T02:24:56.850Z,0
2023-05-19T02:27:57.304Z,0
2023-05-19T02:30:57.674Z,0
2023-05-19T02:33:57.341Z,0
2023-05-19T02:36:57.624Z,1.3333333333333333
2023-05-19T02:39:57.313Z,0
2023-05-19T02:42:58.007Z,0.3333333333333333
2023-05-19T02:45:57.955Z,0.3333333333333333
2023-05-19T02:48:57.676Z,0
2023-05-19T02:51:56.878Z,0
2023-05-19T02:54:57.517Z,0
2023-05-19T02:57:56.692Z,0
2023-05-19T03:00:57.577Z,0.6666666666666666
2023-05-19T03:03:57.347Z,0
2023-05-19T03:06:57.058Z,0
2023-05-19T03:09:57.312Z,0
2023-05-19T03:12:56.601Z,0
2023-05-19T03:15:57.318Z,1
2023-05-19T03:18:56.700Z,2
2023-05-19T03:21:57.174Z,3.3333333333333335
2023-05-19T03:24:56.928Z,6
2023-05-19T03:27:57.356Z,10.666666666666666
2023-05-19T03:30:57.473Z,20.333333333333332
2023-05-19T03:33:56.921Z,17.666666666666668
2023-05-19T03:36:57.952Z,19.666666666666668
2023-05-19T03:39:57.463Z,23.666666666666668
2023-05-19T03:42:57.261Z,31.666666666666668
2023-05-19T03:45:57.395Z,42
2023-05-19T03:48:57.758Z,54.666666666666664
2023-05-19T03:51:57.557Z,68.33333333333333
2023-05-19T03:54:56.914Z,81.66666666666667
2023-05-19T03:57:56.885Z,94.33333333333333
2023-05-19T04:01:00.936Z,110
2023-05-19T04:03:57.700Z,127.66666666666667
2023-05-19T04:06:58.014Z,148
2023-05-19T04:09:57.055Z,174
2023-05-19T04:12:57.198Z,202.66666666666666
2023-05-19T04:15:57.361Z,223
2023-05-19T04:18:56.894Z,255
2023-05-19T04:21:57.191Z,294
2023-05-19T04:24:56.659Z,290.3333333333333
2023-05-19T04:27:57.166Z,296.3333333333333
2023-05-19T04:30:58.184Z,320.6666666666667
2023-05-19T04:33:57.290Z,358.3333333333333
2023-05-19T04:36:57.507Z,405.3333333333333
2023-05-19T04:39:57.722Z,483.6666666666667
2023-05-19T04:42:57.504Z,524
2023-05-19T04:45:57.639Z,554.3333333333334
2023-05-19T04:48:57.290Z,583
2023-05-19T04:51:57.588Z,597.6666666666666
2023-05-19T04:54:57.291Z,616.6666666666666
2023-05-19T04:57:57.634Z,651
2023-05-19T05:00:57.853Z,670.6666666666666
2023-05-19T05:03:58.382Z,627.6666666666666
2023-05-19T05:06:57.281Z,630.3333333333334
2023-05-19T05:09:57.515Z,654.6666666666666
2023-05-19T05:12:57.389Z,623.6666666666666
2023-05-19T05:15:57.771Z,592.3333333333334
2023-05-19T05:18:57.877Z,591.3333333333334
2023-05-19T05:21:57.623Z,572.3333333333334
2023-05-19T05:24:57.783Z,539.6666666666666
2023-05-19T05:27:57.587Z,491
2023-05-19T05:30:58.259Z,490.6666666666667
2023-05-19T05:33:57.738Z,504.6666666666667
2023-05-19T05:36:57.060Z,513.6666666666666
2023-05-19T05:39:57.570Z,492
2023-05-19T05:42:58.266Z,475.3333333333333
2023-05-19T05:45:58.151Z,470.6666666666667
2023-05-19T05:48:58.325Z,477
2023-05-19T05:52:05.595Z,493.3333333333333
2023-05-19T05:54:57.685Z,508
2023-05-19T05:57:58.089Z,496
2023-05-19T06:00:57.919Z,506.3333333333333
2023-05-19T06:03:57.619Z,524.3333333333334
2023-05-19T06:06:56.958Z,553
2023-05-19T06:09:57.636Z,570.3333333333334
2023-05-19T06:12:57.720Z,572.6666666666666
2023-05-19T06:16:00.423Z,566.3333333333334
2023-05-19T06:18:57.768Z,568
2023-05-19T06:21:57.519Z,582.6666666666666
2023-05-19T06:24:57.718Z,607.3333333333334
2023-05-19T06:27:57.967Z,603
2023-05-19T06:30:57.224Z,590
2023-05-19T06:33:57.092Z,569
2023-05-19T06:36:57.430Z,572.3333333333334
2023-05-19T06:39:57.796Z,553.6666666666666
2023-05-19T06:42:57.577Z,576
2023-05-19T06:45:57.090Z,637
2023-05-19T06:48:57.526Z,705
2023-05-19T06:51:57.436Z,745
2023-05-19T06:54:58.416Z,726.6666666666666
2023-05-19T06:57:57.917Z,724.3333333333334
2023-05-19T07:00:57.524Z,758.6666666666666
2023-05-19T07:03:58.674Z,804.3333333333334
2023-05-19T07:06:58.249Z,842
2023-05-19T07:09:58.656Z,877.3333333333334
2023-05-19T07:12:57.285Z,878
2023-05-19T07:15:57.091Z,786.6666666666666
2023-05-19T07:18:56.815Z,590
2023-05-19T07:21:57.373Z,436.6666666666667
2023-05-19T07:24:57.396Z,393.3333333333333
2023-05-19T07:27:56.994Z,423.6666666666667
2023-05-19T07:30:57.757Z,496
2023-05-19T07:33:57.650Z,585.6666666666666
2023-05-19T07:36:57.325Z,594.3333333333334
2023-05-19T07:39:57.810Z,618
2023-05-19T07:42:56.884Z,650.3333333333334
2023-05-19T07:45:57.717Z,578.6666666666666
2023-05-19T07:48:57.500Z,609.6666666666666
2023-05-19T07:51:57.696Z,595.3333333333334
2023-05-19T07:54:57.647Z,628.3333333333334
2023-05-19T07:57:57.669Z,632.6666666666666
2023-05-19T08:00:57.845Z,664.6666666666666
2023-05-19T08:03:57.246Z,671.3333333333334
2023-05-19T08:06:57.349Z,649.3333333333334
2023-05-19T08:09:57.819Z,727.3333333333334
2023-05-19T08:12:58.015Z,748.6666666666666
2023-05-19T08:15:57.680Z,771
2023-05-19T08:18:57.050Z,816.3333333333334
2023-05-19T08:21:58.037Z,798.3333333333334
2023-05-19T08:24:57.512Z,851
2023-05-19T08:27:57.940Z,886.3333333333334
2023-05-19T08:30:57.613Z,930.6666666666666
2023-05-19T08:33:56.941Z,944.6666666666666
2023-05-19T08:36:57.276Z,953
2023-05-19T08:39:57.352Z,944.6666666666666
2023-05-19T08:42:56.965Z,950.3333333333334
2023-05-19T08:45:57.519Z,955.3333333333334
2023-05-19T08:48:56.901Z,956.6666666666666
2023-05-19T08:51:56.774Z,956.6666666666666
2023-05-19T08:54:57.774Z,956.3333333333334
2023-05-19T08:57:57.637Z,956
2023-05-19T09:00:57.644Z,954.3333333333334
2023-05-19T09:03:57.041Z,943.3333333333334
2023-05-19T09:06:57.592Z,951.6666666666666
2023-05-19T09:09:57.705Z,955.6666666666666
2023-05-19T09:12:57.626Z,955.3333333333334
2023-05-19T09:15:58.191Z,954
2023-05-19T09:18:57.496Z,945.6666666666666
2023-05-19T09:21:56.697Z,949.6666666666666
2023-05-19T09:24:57.331Z,950.6666666666666
2023-05-19T09:27:57.428Z,951
2023-05-19T09:30:58.141Z,957
2023-05-19T09:33:57.578Z,954.3333333333334
2023-05-19T09:36:57.108Z,942
2023-05-19T09:39:57.927Z,853.3333333333334
2023-05-19T09:42:57.334Z,704
2023-05-19T09:45:57.688Z,644.3333333333334
2023-05-19T09:48:56.982Z,633.6666666666666
2023-05-19T09:51:57.465Z,649
2023-05-19T09:54:56.900Z,645.6666666666666
2023-05-19T09:57:57.744Z,584
2023-05-19T10:00:58.031Z,517
2023-05-19T10:03:57.117Z,618.6666666666666
2023-05-19T10:06:57.898Z,633.6666666666666
2023-05-19T10:09:58.665Z,532.6666666666666
2023-05-19T10:12:57.648Z,556.3333333333334
2023-05-19T10:15:59.310Z,676
2023-05-19T10:18:57.780Z,769.3333333333334
2023-05-19T10:21:57.402Z,933
2023-05-19T10:24:56.901Z,932.3333333333334
2023-05-19T10:27:57.115Z,845
2023-05-19T10:30:57.603Z,761.6666666666666
2023-05-19T10:33:56.957Z,678
2023-05-19T10:36:57.533Z,630.3333333333334
2023-05-19T10:39:57.259Z,635.6666666666666
2023-05-19T10:42:57.518Z,848.6666666666666
2023-05-19T10:45:57.739Z,861.6666666666666
2023-05-19T10:48:56.981Z,868.6666666666666
2023-05-19T10:51:57.300Z,877.6666666666666
2023-05-19T10:54:57.507Z,826
2023-05-19T10:57:57.825Z,718.3333333333334
2023-05-19T11:00:57.584Z,678
2023-05-19T11:04:16.917Z,552.3333333333334
2023-05-19T11:06:57.983Z,589.3333333333334
2023-05-19T11:09:58.067Z,685
2023-05-19T11:15:57.521Z,810
2023-05-19T11:18:57.050Z,771
2023-05-19T11:21:57.369Z,783.3333333333334
2023-05-19T11:24:57.283Z,854.6666666666666
2023-05-19T11:27:57.525Z,731
2023-05-19T11:30:57.416Z,648.6666666666666
2023-05-19T11:33:57.259Z,684
2023-05-19T11:36:57.030Z,780
2023-05-19T11:39:57.626Z,804.6666666666666
2023-05-19T11:42:57.354Z,912.6666666666666
2023-05-19T11:45:57.400Z,917.6666666666666
2023-05-19T11:48:57.693Z,878.6666666666666
2023-05-19T11:51:57.840Z,795.3333333333334
2023-05-19T11:54:57.277Z,713.3333333333334
2023-05-19T11:58:03.970Z,722
2023-05-19T12:00:57.729Z,810.6666666666666
2023-05-19T12:03:56.991Z,897.3333333333334
2023-05-19T12:06:57.101Z,914
2023-05-19T12:09:57.980Z,923
2023-05-19T12:12:56.980Z,889.3333333333334
2023-05-19T12:15:57.257Z,854.6666666666666
2023-05-19T12:18:57.794Z,841.6666666666666
2023-05-19T12:21:56.940Z,863.3333333333334
2023-05-19T12:24:56.854Z,933.3333333333334
2023-05-19T12:27:58.091Z,945.6666666666666
2023-05-19T12:30:57.923Z,951
2023-05-19T12:33:57.820Z,953.6666666666666
2023-05-19T12:36:57.516Z,953.6666666666666
2023-05-19T12:39:57.161Z,952.3333333333334
2023-05-19T12:43:04.920Z,938.3333333333334
2023-05-19T12:45:57.334Z,825.3333333333334
2023-05-19T12:48:57.313Z,897
2023-05-19T12:51:56.965Z,880
2023-05-19T12:54:57.422Z,798.3333333333334
2023-05-19T12:57:57.722Z,897
2023-05-19T13:00:58.449Z,919.6666666666666
2023-05-19T13:03:57.359Z,911
2023-05-19T13:06:57.476Z,869.6666666666666
2023-05-19T13:09:57.342Z,807.3333333333334
2023-05-19T13:12:57.615Z,916
2023-05-19T13:15:57.636Z,932.3333333333334
2023-05-19T13:18:57.402Z,945
2023-05-19T13:21:57.282Z,948.6666666666666
2023-05-19T13:24:57.568Z,945
2023-05-19T13:27:57.343Z,946.6666666666666
2023-05-19T13:30:57.578Z,938.3333333333334
2023-05-19T13:33:56.903Z,803.6666666666666
2023-05-19T13:36:57.752Z,685
2023-05-19T13:39:58.758Z,641.6666666666666
2023-05-19T13:42:57.562Z,695
2023-05-19T13:45:57.888Z,790.3333333333334
2023-05-19T13:48:57.213Z,811.6666666666666
2023-05-19T13:51:57.099Z,795
2023-05-19T13:54:57.555Z,813.3333333333334
2023-05-19T13:57:57.609Z,895
2023-05-19T14:00:58.403Z,932.3333333333334
2023-05-19T14:03:57.480Z,944.3333333333334
2023-05-19T14:06:57.716Z,950.6666666666666
2023-05-19T14:09:57.897Z,951.3333333333334
2023-05-19T14:13:26.069Z,947
2023-05-19T14:15:57.654Z,942.3333333333334
2023-05-19T14:18:57.543Z,936
2023-05-19T14:21:57.350Z,929.3333333333334
2023-05-19T14:24:56.732Z,937
2023-05-19T14:27:57.097Z,947
2023-05-19T14:30:58.104Z,947.6666666666666
2023-05-19T14:33:57.084Z,946
2023-05-19T14:36:57.209Z,928.6666666666666
2023-05-19T14:39:57.302Z,850
2023-05-19T14:42:57.652Z,879.3333333333334
2023-05-19T14:45:57.574Z,931
2023-05-19T14:48:57.898Z,934
2023-05-19T14:51:56.979Z,936
2023-05-19T14:54:57.704Z,936.3333333333334
2023-05-19T14:57:57.594Z,942
2023-05-19T15:00:58.505Z,943
2023-05-19T15:03:57.561Z,941
2023-05-19T15:07:09.694Z,943.6666666666666
2023-05-19T15:09:57.551Z,942
2023-05-19T15:12:57.558Z,942.3333333333334
2023-05-19T15:16:12.395Z,926
2023-05-19T15:18:56.919Z,885
2023-05-19T15:21:56.655Z,857.3333333333334
2023-05-19T15:24:57.223Z,826
2023-05-19T15:27:56.856Z,822.6666666666666
2023-05-19T15:30:57.637Z,833
2023-05-19T15:33:57.236Z,827
2023-05-19T15:36:57.627Z,817.6666666666666
2023-05-19T15:39:58.047Z,872.3333333333334
2023-05-19T15:42:57.906Z,900.6666666666666
2023-05-19T15:45:57.858Z,892.6666666666666
2023-05-19T15:48:57.272Z,895.6666666666666
2023-05-19T15:51:57.030Z,908
2023-05-19T15:54:57.976Z,856.6666666666666
2023-05-19T15:57:57.535Z,870.3333333333334
2023-05-19T16:00:58.489Z,892.3333333333334
2023-05-19T16:03:57.429Z,879.3333333333334
2023-05-19T16:06:57.781Z,912.3333333333334
2023-05-19T16:09:57.990Z,892
2023-05-19T16:12:57.709Z,818.6666666666666
2023-05-19T16:15:58.031Z,859
2023-05-19T16:18:58.254Z,786
2023-05-19T16:21:57.324Z,779.3333333333334
2023-05-19T16:24:58.128Z,797
2023-05-19T16:27:56.922Z,781
2023-05-19T16:30:57.335Z,695.6666666666666
2023-05-19T16:33:57.340Z,697.6666666666666
2023-05-19T16:36:56.937Z,675
2023-05-19T16:39:57.624Z,666.3333333333334
2023-05-19T16:42:58.017Z,603.6666666666666
2023-05-19T16:45:57.209Z,617.3333333333334
2023-05-19T16:48:57.226Z,560
2023-05-19T16:51:57.369Z,530
2023-05-19T16:54:57.449Z,507
2023-05-19T16:57:57.337Z,452.6666666666667
2023-05-19T17:00:58.110Z,400.3333333333333
2023-05-19T17:03:57.422Z,371.3333333333333
2023-05-19T17:06:57.513Z,360
2023-05-19T17:09:57.800Z,386.3333333333333
2023-05-19T17:12:56.930Z,421
2023-05-19T17:15:57.561Z,436
2023-05-19T17:18:57.766Z,471
2023-05-19T17:21:57.624Z,510
2023-05-19T17:24:56.978Z,526.3333333333334
2023-05-19T17:27:57.615Z,521
2023-05-19T17:30:57.052Z,484.3333333333333
2023-05-19T17:33:57.118Z,424
2023-05-19T17:36:57.179Z,408
2023-05-19T17:39:57.516Z,405.6666666666667
2023-05-19T17:42:57.686Z,399.3333333333333
2023-05-19T17:46:00.280Z,380.6666666666667
2023-05-19T17:48:57.414Z,360.3333333333333
2023-05-19T17:51:57.245Z,334.6666666666667
2023-05-19T17:55:03.131Z,317.6666666666667
2023-05-19T17:57:57.642Z,282.6666666666667
2023-05-19T18:00:57.174Z,242
2023-05-19T18:03:57.296Z,205.33333333333334
2023-05-19T18:06:56.932Z,186
2023-05-19T18:09:57.697Z,171.33333333333334
2023-05-19T18:12:57.234Z,151.66666666666666
2023-05-19T18:15:57.708Z,101
2023-05-19T18:18:58.866Z,67
2023-05-19T18:21:57.634Z,50.333333333333336
2023-05-19T18:24:57.646Z,40
2023-05-19T18:27:57.800Z,35.666666666666664
2023-05-19T18:30:57.726Z,31
2023-05-19T18:33:57.604Z,26.666666666666668
2023-05-19T18:36:57.433Z,26.666666666666668
2023-05-19T18:39:57.617Z,24
2023-05-19T18:42:57.348Z,20.333333333333332
2023-05-19T18:45:57.399Z,19.666666666666668
2023-05-19T18:48:56.831Z,15.666666666666666
2023-05-19T18:51:57.577Z,11
2023-05-19T18:54:56.970Z,8.666666666666666
2023-05-19T18:57:57.566Z,6.333333333333333
2023-05-19T19:01:25.419Z,5.666666666666667
2023-05-19T19:03:57.268Z,6.333333333333333
2023-05-19T19:06:57.167Z,3
2023-05-19T19:09:57.478Z,2.3333333333333335
2023-05-19T19:12:56.984Z,0.6666666666666666
2023-05-19T19:15:57.720Z,0.6666666666666666
2023-05-19T19:18:57.184Z,0
2023-05-19T19:21:57.121Z,0
2023-05-19T19:24:57.014Z,0.3333333333333333
2023-05-19T19:27:57.660Z,0.6666666666666666
2023-05-19T19:30:57.653Z,0
2023-05-19T19:33:57.135Z,0
2023-05-19T19:36:57.741Z,0
2023-05-19T19:39:57.139Z,0
2023-05-19T19:42:57.228Z,0
2023-05-19T19:45:57.841Z,0
2023-05-19T19:48:57.470Z,0
2023-05-19T19:51:57.637Z,0.3333333333333333
2023-05-19T19:54:56.731Z,0
2023-05-19T19:57:57.337Z,0
2023-05-19T20:00:58.094Z,0
2023-05-19T20:03:57.646Z,0
2023-05-19T20:06:57.653Z,0
2023-05-19T20:09:57.304Z,0
2023-05-19T20:12:57.440Z,0.6666666666666666
2023-05-19T20:15:57.098Z,0
2023-05-19T20:18:56.954Z,0
2023-05-19T20:21:57.951Z,0.3333333333333333
2023-05-19T20:24:56.760Z,0
2023-05-19T20:27:57.601Z,0.3333333333333333
2023-05-19T20:30:57.881Z,0.3333333333333333
2023-05-19T20:33:58.703Z,0
2023-05-19T20:36:57.001Z,0
2023-05-19T20:39:57.548Z,0
2023-05-19T20:42:57.925Z,0.6666666666666666
2023-05-19T20:45:57.551Z,0.3333333333333333
2023-05-19T20:48:57.927Z,0
2023-05-19T20:51:57.898Z,0
2023-05-19T20:54:57.718Z,1.6666666666666667
2023-05-19T20:57:57.464Z,0.6666666666666666
2023-05-19T21:00:57.916Z,0.3333333333333333
2023-05-19T21:03:57.311Z,0
2023-05-19T21:06:57.910Z,0.6666666666666666
2023-05-19T21:09:57.844Z,0.3333333333333333
2023-05-19T21:12:57.092Z,0
2023-05-19T21:15:58.169Z,1
2023-05-19T21:18:57.653Z,0
2023-05-19T21:21:57.823Z,0
2023-05-19T21:24:57.407Z,1
2023-05-19T21:27:57.787Z,0.6666666666666666
2023-05-19T21:30:57.762Z,0.3333333333333333
2023-05-19T21:33:58.127Z,0
2023-05-19T21:36:57.832Z,0
2023-05-19T21:39:58.149Z,0.6666666666666666
2023-05-19T21:42:57.197Z,0.3333333333333333
2023-05-19T21:45:58.019Z,0.3333333333333333
2023-05-19T21:48:57.522Z,0.3333333333333333
2023-05-19T21:51:57.761Z,0
2023-05-19T21:54:57.049Z,0
2023-05-19T21:57:58.556Z,0
2023-05-19T22:00:57.924Z,0.3333333333333333
2023-05-19T22:03:56.868Z,0
2023-05-19T22:06:57.872Z,2.3333333333333335
2023-05-19T22:09:57.035Z,0.3333333333333333
2023-05-19T22:12:57.780Z,0
2023-05-19T22:15:57.609Z,0
2023-05-19T22:18:57.340Z,0
2023-05-19T22:22:09.773Z,0.3333333333333333
2023-05-19T22:24:57.621Z,0.3333333333333333
2023-05-19T22:27:56.934Z,0.6666666666666666
2023-05-19T22:30:57.486Z,2
2023-05-19T22:33:57.506Z,0
2023-05-19T22:36:56.957Z,0
2023-05-19T22:39:57.182Z,0
2023-05-19T22:42:59.301Z,0
2023-05-19T22:45:57.152Z,0
2023-05-19T22:48:57.493Z,0
2023-05-19T22:51:57.103Z,0
2023-05-19T22:54:57.439Z,0.6666666666666666
2023-05-19T22:57:57.095Z,0
2023-05-19T23:00:57.519Z,0
2023-05-19T23:03:57.069Z,0
2023-05-19T23:06:57.461Z,0
2023-05-19T23:09:57.258Z,0
2023-05-19T23:12:56.941Z,0
2023-05-19T23:15:57.690Z,0
2023-05-19T23:18:57.838Z,0
2023-05-19T23:21:57.065Z,0
2023-05-19T23:24:57.594Z,0
2023-05-19T23:27:57.600Z,0
2023-05-19T23:30:57.647Z,0
2023-05-19T23:33:57.384Z,0
2023-05-19T23:36:57.171Z,0
2023-05-19T23:39:57.523Z,0
2023-05-19T23:42:56.947Z,0
2023-05-19T23:45:57.337Z,0
2023-05-19T23:48:57.220Z,0.3333333333333333
2023-05-19T23:51:57.340Z,0
2023-05-19T23:54:56.601Z,0.3333333333333333
2023-05-19T23:57:57.086Z,0
